Flight Track Log - Related Links

Times and Time Zones

All times are in EDT time to prevent confusion due to time zone crossing. See the EJA221 flight status page for this flight to view local times or setup timezone preferences in your user account.

Time Position Orientation Groundspeed Altitude Reporting Facility
EDT Latitude Longitude Course Direction KTS MPH feet Rate Location/Type
Sun 09:18:35 PM 36.0786 -115.1300 92° East 181 208 3,400  Level Los Angeles Center
Sun 09:19:54 PM 36.0761 -115.0297 92° East 235 270 6,400 1,714 Climbing Los Angeles Center
Sun 09:20:48 PM 36.0558 -114.9461 107° East 283 326 7,200 1,765 Climbing Los Angeles Center
Sun 09:21:19 PM 36.0150 -114.9247 157° South 282 325 8,900 3,134 Climbing Los Angeles Center
Sun 09:21:55 PM 35.9678 -114.9194 175° South 300 345 10,700 2,041 Climbing Los Angeles Center
Sun 09:22:56 PM 35.8939 -114.9867 216° Southwest 347 399 12,200 1,400 Climbing Los Angeles Center
Sun 09:24:25 PM 35.7972 -115.1086 226° Southwest 359 413 14,200 1,152 Climbing Los Angeles Center
Sun 09:25:27 PM 35.7336 -115.2089 232° Southwest 367 422 15,100 1,015 Climbing Los Angeles Center
Sun 09:26:41 PM 35.6675 -115.3106 231° Southwest 374 430 16,500 1,721 Climbing Los Angeles Center
Sun 09:27:43 PM 35.5817 -115.4250 227° Southwest 376 433 19,000 2,419 Climbing Los Angeles Center
Sun 09:28:45 PM 35.4931 -115.5411 227° Southwest 382 440 21,500 1,984 Climbing Los Angeles Center
Sun 09:29:47 PM 35.4089 -115.6333 222° Southwest 400 460 23,100 1,500 Climbing Los Angeles Center
Sun 09:30:49 PM 35.3192 -115.7253 220° Southwest 415 478 24,600 1,452 Climbing Los Angeles Center
Sun 09:31:51 PM 35.2297 -115.8219 221° Southwest 424 488 26,100 1,500 Climbing Los Angeles Center
Sun 09:32:53 PM 35.1417 -115.9286 225° Southwest 439 505 27,700 844 Climbing Los Angeles Center
Sun 09:34:06 PM 35.0481 -116.0372 224° Southwest 454 522 28,000 132 Climbing Los Angeles Center
Sun 09:35:09 PM 34.9294 -116.1733 223° Southwest 479 551 28,000  Level Los Angeles Center
Sun 09:36:11 PM 34.8294 -116.2878 223° Southwest 488 562 28,000  Level Los Angeles Center
Sun 09:37:13 PM 34.7103 -116.4250 223° Southwest 491 565 28,000  Level Los Angeles Center
Sun 09:38:15 PM 34.6100 -116.5386 223° Southwest 492 566 28,000 -677 Level Los Angeles Center
Sun 09:39:17 PM 34.5100 -116.6522 223° Southwest 491 565 26,600 -1,512 Descending Los Angeles Center
Sun 09:40:18 PM 34.4111 -116.7633 223° Southwest 486 559 24,900 -1,805 Descending Los Angeles Center
Sun 09:41:20 PM 34.3119 -116.8767 223° Southwest 488 562 22,900 -1,839 Descending Los Angeles Center
Sun 09:42:22 PM 34.2169 -116.9844 223° Southwest 471 542 21,100 -1,452 Descending Los Angeles Center
Sun 09:43:24 PM 34.1536 -117.0558 223° Southwest 408 470 19,900 -1,016 Descending Los Angeles Center
Sun 09:44:26 PM 34.0728 -117.1919 234° Southwest 376 433 19,000 -1,210 Descending Los Angeles Center
Sun 09:45:28 PM 34.0433 -117.3094 253° West 376 433 17,400 -2,226 Descending Los Angeles Center
Sun 09:46:30 PM 34.0317 -117.4289 263° West 364 419 14,400 -2,341 Descending Los Angeles Center
Sun 09:47:31 PM 34.0200 -117.5478 263° West 360 414 12,600 -1,659 Descending Los Angeles Center
Sun 09:48:33 PM 34.0092 -117.6550 263° West 331 381 11,000 -1,645 Descending Los Angeles Center
Sun 09:49:35 PM 33.9986 -117.7739 264° West 305 351 9,200 -1,403 Descending Los Angeles Center
Sun 09:50:37 PM 33.9900 -117.8603 263° West 274 315 8,100 -1,073 Descending Los Angeles Center
Sun 09:51:38 PM 33.9833 -117.9500 265° West 253 291 7,000 -1,190 Descending Southern California TRACON
Sun 09:52:38 PM 33.9667 -118.0333 256° West 241 277 5,700 -1,300 Descending Southern California TRACON
Sun 09:53:38 PM 33.9667 -118.1000 270° West 224 258 4,400 -1,150 Descending Southern California TRACON
Sun 09:54:38 PM 33.9667 -118.1667 270° West 195 224 3,400 -947 Descending Southern California TRACON
Sun 09:55:32 PM 33.9500 -118.2167 248° West 165 190 2,600 -842 Descending Southern California TRACON
Sun 09:56:32 PM 33.9500 -118.2833 270° West 160 184 1,800 -750 Descending Southern California TRACON
Sun 09:57:32 PM 33.9500 -118.3333 270° West 160 184 1,100 -750 Descending Southern California TRACON
Sun 09:58:32 PM 33.9333 -118.3667 239° Southwest 133 153 300 -800 Descending Southern California TRACON
Sun 10:00:00 PM 33.9333 -118.4000 259° West  Level FlightAware Approximate
Sun 10:07:00 PM 33.9425 -118.4081 259° West  Level Estimated

Login

Don't have an account? Register now (free) for customized features, flight alerts, and more!